In Rescue
 
Open Full Screen Window  High Contrast Mode
Wind Gusting 00 knots
03
November 28, 2020 12:55 AM EST
Weather Information
Wind Direction
  270 °
Wind Speed
  03 kt (3 mph)
Wind Gust
  00 kt (0 mph)
Altimeter
30.04 in
Visibility
10 SM
Temperature
00° C
32° F
Dewpoint
-02° C
28° F
Humidity
87%
1hr Rain Fall
00.00 in.
24hr Rain Fall
00.00 in.
Sky Condition
Clear
VFR

METAR KIKW 280555Z AUTO 27003KT 10SM CLR 00/M02 A3004 RMK AO2 T00001025 10045 20000 400700000

FAA Disclaimer: The data displayed is for advisory purposes only and is not to be used for flight planning or operations.